createdAt,value
2023-04-27T00:02:13.374Z,6.65
2023-04-27T00:04:40.146Z,5.78
2023-04-27T00:07:06.642Z,6.43
2023-04-27T00:09:32.986Z,5.93
2023-04-27T00:11:59.336Z,6.22
2023-04-27T00:14:28.529Z,6.38
2023-04-27T00:16:55.776Z,6.57
2023-04-27T00:19:22.963Z,5.63
2023-04-27T00:21:49.403Z,6.22
2023-04-27T00:24:15.870Z,5.88
2023-04-27T00:26:42.466Z,6.38
2023-04-27T00:29:08.928Z,5.70
2023-04-27T00:31:35.537Z,6.03
2023-04-27T00:34:02.897Z,6.60
2023-04-27T00:36:29.287Z,5.55
2023-04-27T00:38:55.706Z,6.60
2023-04-27T00:41:23.017Z,6.63
2023-04-27T00:43:49.523Z,6.00
2023-04-27T00:46:16.928Z,6.45
2023-04-27T00:48:44.409Z,6.15
2023-04-27T00:51:10.849Z,6.68
2023-04-27T00:53:37.933Z,6.55
2023-04-27T00:56:06.488Z,6.50
2023-04-27T01:01:00.412Z,6.28
2023-04-27T01:03:27.226Z,6.03
2023-04-27T01:05:53.909Z,5.95
2023-04-27T01:08:20.600Z,6.05
2023-04-27T01:10:46.974Z,6.10
2023-04-27T01:13:13.427Z,7.15
2023-04-27T01:15:41.058Z,6.07
2023-04-27T01:18:07.781Z,6.70
2023-04-27T01:20:34.211Z,7.00
2023-04-27T01:23:01.065Z,6.50
2023-04-27T01:25:27.489Z,7.18
2023-04-27T01:27:54.366Z,6.60
2023-04-27T01:30:22.815Z,6.95
2023-04-27T01:35:16.660Z,5.93
2023-04-27T01:37:43.251Z,6.20
2023-04-27T01:40:10.707Z,6.25
2023-04-27T01:42:37.158Z,6.65
2023-04-27T01:45:04.116Z,6.40
2023-04-27T01:47:30.658Z,7.55
2023-04-27T01:49:57.014Z,7.32
2023-04-27T01:52:23.505Z,7.10
2023-04-27T01:54:50.056Z,6.60
2023-04-27T01:57:16.650Z,6.53
2023-04-27T01:59:43.275Z,7.15
2023-04-27T02:02:09.668Z,6.78
2023-04-27T02:04:36.684Z,7.28
2023-04-27T02:07:03.440Z,6.88
2023-04-27T02:09:29.765Z,6.88
2023-04-27T02:11:56.097Z,6.55
2023-04-27T02:14:22.711Z,7.20
2023-04-27T02:16:49.141Z,6.78
2023-04-27T02:19:15.722Z,6.25
2023-04-27T02:21:42.694Z,6.93
2023-04-27T02:24:09.955Z,7.00
2023-04-27T02:26:36.617Z,7.03
2023-04-27T02:29:03.838Z,7.32
2023-04-27T02:31:31.144Z,7.60
2023-04-27T02:33:57.541Z,7.18
2023-04-27T02:36:24.166Z,8.73
2023-04-27T02:38:50.608Z,7.50
2023-04-27T02:41:16.954Z,7.68
2023-04-27T02:43:43.298Z,8.65
2023-04-27T02:46:09.661Z,7.40
2023-04-27T02:48:36.086Z,7.38
2023-04-27T02:51:06.224Z,7.50
2023-04-27T02:53:32.965Z,7.22
2023-04-27T02:55:59.436Z,8.02
2023-04-27T02:58:26.319Z,7.80
2023-04-27T03:00:56.816Z,9.88
2023-04-27T03:03:24.183Z,8.23
2023-04-27T03:05:50.856Z,7.43
2023-04-27T03:08:17.267Z,7.60
2023-04-27T03:10:43.638Z,7.15
2023-04-27T03:13:09.985Z,6.47
2023-04-27T03:15:36.384Z,7.50
2023-04-27T03:18:02.867Z,6.47
2023-04-27T03:20:29.206Z,7.15
2023-04-27T03:22:55.609Z,7.43
2023-04-27T03:25:22.298Z,7.55
2023-04-27T03:27:48.728Z,6.40
2023-04-27T03:30:15.273Z,6.90
2023-04-27T03:32:41.863Z,7.72
2023-04-27T03:35:09.709Z,7.97
2023-04-27T03:37:36.204Z,7.75
2023-04-27T03:40:02.686Z,6.57
2023-04-27T03:42:29.549Z,7.07
2023-04-27T03:44:56.146Z,8.13
2023-04-27T03:47:22.703Z,8.23
2023-04-27T03:49:49.316Z,8.25
2023-04-27T03:52:15.640Z,7.30
2023-04-27T03:54:41.986Z,7.85
2023-04-27T03:57:08.410Z,7.85
2023-04-27T03:59:34.992Z,8.32
2023-04-27T04:02:02.244Z,8.05
2023-04-27T04:04:29.007Z,9.43
2023-04-27T04:06:55.502Z,9.10
2023-04-27T04:09:23.849Z,8.98
2023-04-27T04:11:52.508Z,10.43
2023-04-27T04:14:18.805Z,9.20
2023-04-27T04:16:45.513Z,8.23
2023-04-27T04:19:12.073Z,8.60
2023-04-27T04:21:38.627Z,8.40
2023-04-27T04:24:05.859Z,8.68
2023-04-27T04:26:32.646Z,7.88
2023-04-27T04:28:59.224Z,8.05
2023-04-27T04:31:26.376Z,8.80
2023-04-27T04:33:53.084Z,8.32
2023-04-27T04:36:19.667Z,8.43
2023-04-27T04:38:45.991Z,8.25
2023-04-27T04:41:12.332Z,8.02
2023-04-27T04:43:38.876Z,8.40
2023-04-27T04:46:06.286Z,9.48
2023-04-27T04:48:32.947Z,8.50
2023-04-27T04:50:59.524Z,8.55
2023-04-27T04:53:26.185Z,9.15
2023-04-27T04:55:52.763Z,9.43
2023-04-27T04:58:19.326Z,8.80
2023-04-27T05:00:45.764Z,9.07
2023-04-27T05:03:12.242Z,9.63
2023-04-27T05:05:38.884Z,8.93
2023-04-27T05:08:05.473Z,8.98
2023-04-27T05:10:32.100Z,9.52
2023-04-27T05:12:58.499Z,9.40
2023-04-27T05:15:25.128Z,9.20
2023-04-27T05:17:51.809Z,9.18
2023-04-27T05:20:18.404Z,10.18
2023-04-27T05:22:44.750Z,9.60
2023-04-27T05:25:11.387Z,9.80
2023-04-27T05:27:37.699Z,9.73
2023-04-27T05:30:04.521Z,8.65
2023-04-27T05:32:31.268Z,9.45
2023-04-27T05:34:57.639Z,9.48
2023-04-27T05:37:24.024Z,9.30
2023-04-27T05:39:50.655Z,9.73
2023-04-27T05:42:17.254Z,9.48
2023-04-27T05:44:43.785Z,10.25
2023-04-27T05:47:10.633Z,9.35
2023-04-27T05:49:37.489Z,9.48
2023-04-27T05:52:04.573Z,9.50
2023-04-27T05:54:31.015Z,9.50
2023-04-27T05:56:57.838Z,9.65
2023-04-27T05:59:24.261Z,8.98
2023-04-27T06:01:51.794Z,10.13
2023-04-27T06:04:18.587Z,9.03
2023-04-27T06:06:45.154Z,8.85
2023-04-27T06:09:11.972Z,9.27
2023-04-27T06:11:39.476Z,9.63
2023-04-27T06:14:05.868Z,9.10
2023-04-27T06:16:32.276Z,8.23
2023-04-27T06:18:58.877Z,9.35
2023-04-27T06:21:25.297Z,8.00
2023-04-27T06:23:51.634Z,10.10
2023-04-27T06:26:17.973Z,8.95
2023-04-27T06:28:44.671Z,9.18
2023-04-27T06:31:11.077Z,9.43
2023-04-27T06:33:37.447Z,9.00
2023-04-27T06:36:03.938Z,9.15
2023-04-27T06:38:30.949Z,8.35
2023-04-27T06:40:57.348Z,8.63
2023-04-27T06:43:23.739Z,8.73
2023-04-27T06:45:50.425Z,8.85
2023-04-27T06:48:17.270Z,8.60
2023-04-27T06:50:43.823Z,8.23
2023-04-27T06:53:10.702Z,8.48
2023-04-27T06:55:37.066Z,8.63
2023-04-27T06:58:03.869Z,7.47
2023-04-27T07:00:31.411Z,7.97
2023-04-27T07:02:58.159Z,7.83
2023-04-27T07:05:24.593Z,6.40
2023-04-27T07:07:51.145Z,7.25
2023-04-27T07:10:17.651Z,7.35
2023-04-27T07:12:44.216Z,5.93
2023-04-27T07:15:10.924Z,6.00
2023-04-27T07:17:44.733Z,5.28
2023-04-27T07:20:11.481Z,5.20
2023-04-27T07:22:37.927Z,5.32
2023-04-27T07:25:06.195Z,5.40
2023-04-27T07:27:32.922Z,5.47
2023-04-27T07:29:59.475Z,5.78
2023-04-27T07:32:26.173Z,5.00
2023-04-27T07:34:55.511Z,5.60
2023-04-27T07:37:23.220Z,4.75
2023-04-27T07:39:53.847Z,4.70
2023-04-27T07:42:22.413Z,5.78
2023-04-27T07:44:50.609Z,5.35
2023-04-27T07:47:18.847Z,4.72
2023-04-27T07:52:14.086Z,4.53
2023-04-27T07:54:40.704Z,3.67
2023-04-27T07:57:13.681Z,4.10
2023-04-27T07:59:42.208Z,3.75
2023-04-27T08:04:47.786Z,3.15
2023-04-27T08:07:16.034Z,3.60
2023-04-27T08:09:42.995Z,3.72
2023-04-27T08:12:09.449Z,3.20
2023-04-27T08:14:36.426Z,3.25
2023-04-27T08:17:05.168Z,3.80
2023-04-27T08:19:31.586Z,3.08
2023-04-27T08:21:57.933Z,3.03
2023-04-27T08:24:24.244Z,3.50
2023-04-27T08:26:50.672Z,3.33
2023-04-27T08:29:26.990Z,3.70
2023-04-27T08:31:56.962Z,2.92
2023-04-27T08:34:23.741Z,3.17
2023-04-27T08:36:59.027Z,3.45
2023-04-27T08:39:25.546Z,3.55
2023-04-27T08:41:52.418Z,3.30
2023-04-27T08:44:21.476Z,3.17
2023-04-27T08:46:48.022Z,3.20
2023-04-27T08:49:16.866Z,3.03
2023-04-27T08:51:44.124Z,3.03
2023-04-27T08:54:11.299Z,2.88
2023-04-27T08:56:37.780Z,2.75
2023-04-27T08:59:04.410Z,2.47
2023-04-27T09:01:32.373Z,3.15
2023-04-27T09:04:01.307Z,3.00
2023-04-27T09:06:32.757Z,2.45
2023-04-27T09:09:00.059Z,2.40
2023-04-27T09:11:38.698Z,2.33
2023-04-27T09:14:20.674Z,2.28
2023-04-27T09:16:56.169Z,2.58
2023-04-27T09:19:28.697Z,2.50
2023-04-27T09:22:14.998Z,2.15
2023-04-27T09:24:53.625Z,2.00
2023-04-27T09:27:22.087Z,2.33
2023-04-27T09:29:48.637Z,2.30
2023-04-27T09:32:20.666Z,2.50
2023-04-27T09:34:47.296Z,2.78
2023-04-27T09:37:14.501Z,2.50
2023-04-27T09:39:42.362Z,2.40
2023-04-27T09:42:09.397Z,2.70
2023-04-27T09:44:36.094Z,2.13
2023-04-27T09:47:02.893Z,2.13
2023-04-27T09:49:29.650Z,2.47
2023-04-27T09:51:58.997Z,2.00
2023-04-27T09:54:33.520Z,2.15
2023-04-27T09:57:23.298Z,2.58
2023-04-27T10:00:11.996Z,2.45
2023-04-27T10:02:56.261Z,2.75
2023-04-27T10:05:36.819Z,2.70
2023-04-27T10:08:05.768Z,2.80
2023-04-27T10:10:42.981Z,2.78
2023-04-27T10:13:26.138Z,3.20
2023-04-27T10:15:55.374Z,3.10
2023-04-27T10:18:27.874Z,3.00
2023-04-27T10:20:54.500Z,2.95
2023-04-27T10:23:28.948Z,2.45
2023-04-27T10:25:56.222Z,3.20
2023-04-27T10:28:22.989Z,2.72
2023-04-27T10:30:49.977Z,2.67
2023-04-27T10:33:22.566Z,2.60
2023-04-27T10:35:59.018Z,3.25
2023-04-27T10:38:30.297Z,2.90
2023-04-27T10:41:05.436Z,2.60
2023-04-27T10:43:36.415Z,2.58
2023-04-27T10:46:15.879Z,3.33
2023-04-27T10:48:43.684Z,2.53
2023-04-27T10:51:14.986Z,2.67
2023-04-27T10:53:41.922Z,2.42
2023-04-27T10:56:09.947Z,2.58
2023-04-27T11:01:08.521Z,2.60
2023-04-27T11:03:35.633Z,2.50
2023-04-27T11:06:05.956Z,2.63
2023-04-27T11:08:34.266Z,2.80
2023-04-27T11:11:01.876Z,3.30
2023-04-27T11:13:28.629Z,2.87
2023-04-27T11:15:57.497Z,2.78
2023-04-27T11:18:26.716Z,3.00
2023-04-27T11:20:55.071Z,2.90
2023-04-27T11:23:26.657Z,3.13
2023-04-27T11:25:53.457Z,2.95
2023-04-27T11:28:20.461Z,3.22
2023-04-27T11:30:47.580Z,3.40
2023-04-27T11:33:14.013Z,3.45
2023-04-27T11:35:40.745Z,3.10
2023-04-27T11:38:07.172Z,3.30
2023-04-27T11:40:35.912Z,3.22
2023-04-27T11:43:05.277Z,2.58
2023-04-27T11:45:32.034Z,3.15
2023-04-27T11:47:59.321Z,2.70
2023-04-27T11:50:26.712Z,2.88
2023-04-27T11:52:53.580Z,3.03
2023-04-27T11:55:24.677Z,3.47
2023-04-27T11:57:58.676Z,2.80
2023-04-27T12:00:25.448Z,3.13
2023-04-27T12:02:52.187Z,3.30
2023-04-27T12:05:20.023Z,3.30
2023-04-27T12:07:46.847Z,4.15
2023-04-27T12:10:13.271Z,3.30
2023-04-27T12:12:39.717Z,3.20
2023-04-27T12:15:08.630Z,3.13
2023-04-27T12:17:35.136Z,4.03
2023-04-27T12:20:02.031Z,4.00
2023-04-27T12:22:28.781Z,3.72
2023-04-27T12:24:55.902Z,3.50
2023-04-27T12:27:22.261Z,3.25
2023-04-27T12:29:48.610Z,3.92
2023-04-27T12:32:15.321Z,3.63
2023-04-27T12:34:42.840Z,3.42
2023-04-27T12:37:09.167Z,4.32
2023-04-27T12:39:35.487Z,3.83
2023-04-27T12:42:02.345Z,4.35
2023-04-27T12:44:28.688Z,3.97
2023-04-27T12:46:55.337Z,3.70
2023-04-27T12:49:22.085Z,4.13
2023-04-27T12:51:51.618Z,4.07
2023-04-27T12:54:18.212Z,4.13
2023-04-27T12:56:44.809Z,3.80
2023-04-27T12:59:11.234Z,4.40
2023-04-27T13:01:37.676Z,4.43
2023-04-27T13:04:05.827Z,4.13
2023-04-27T13:06:32.551Z,4.15
2023-04-27T13:08:59.385Z,4.82
2023-04-27T13:11:26.800Z,4.80
2023-04-27T13:13:54.787Z,4.40
2023-04-27T13:16:22.599Z,4.38
2023-04-27T13:18:51.896Z,4.95
2023-04-27T13:21:18.733Z,4.20
2023-04-27T13:23:45.193Z,4.38
2023-04-27T13:26:11.692Z,4.68
2023-04-27T13:28:38.223Z,4.20
2023-04-27T13:31:05.630Z,4.20
2023-04-27T13:33:33.726Z,5.03
2023-04-27T13:36:03.212Z,4.65
2023-04-27T13:38:29.581Z,4.40
2023-04-27T13:40:56.291Z,4.28
2023-04-27T13:43:22.746Z,4.35
2023-04-27T13:45:50.794Z,4.18
2023-04-27T13:48:17.256Z,4.10
2023-04-27T13:50:43.666Z,4.68
2023-04-27T13:53:10.094Z,5.07
2023-04-27T13:55:37.147Z,4.88
2023-04-27T13:58:03.752Z,5.13
2023-04-27T14:00:33.395Z,4.32
2023-04-27T14:03:01.420Z,4.60
2023-04-27T14:05:27.868Z,4.00
2023-04-27T14:07:54.413Z,5.10
2023-04-27T14:10:22.472Z,5.45
2023-04-27T14:12:49.299Z,4.75
2023-04-27T14:15:16.041Z,5.32
2023-04-27T14:17:42.607Z,5.35
2023-04-27T14:20:09.063Z,5.38
2023-04-27T14:22:36.439Z,5.68
2023-04-27T14:25:03.265Z,5.05
2023-04-27T14:27:31.252Z,5.40
2023-04-27T14:29:57.590Z,5.70
2023-04-27T14:32:24.229Z,5.28
2023-04-27T14:34:50.782Z,5.60
2023-04-27T14:37:17.634Z,5.55
2023-04-27T14:39:47.132Z,5.60
2023-04-27T14:42:13.568Z,6.40
2023-04-27T14:44:39.897Z,5.40
2023-04-27T14:47:06.684Z,5.43
2023-04-27T14:49:33.638Z,5.78
2023-04-27T14:52:03.906Z,5.32
2023-04-27T14:54:31.375Z,5.03
2023-04-27T14:56:59.032Z,5.30
2023-04-27T14:59:25.517Z,5.57
2023-04-27T15:01:52.265Z,4.90
2023-04-27T15:04:19.064Z,5.25
2023-04-27T15:06:46.127Z,5.32
2023-04-27T15:09:13.492Z,5.10
2023-04-27T15:11:40.086Z,5.57
2023-04-27T15:14:07.317Z,5.43
2023-04-27T15:16:33.950Z,6.03
2023-04-27T15:19:00.402Z,5.18
2023-04-27T15:21:27.082Z,5.55
2023-04-27T15:23:53.386Z,5.80
2023-04-27T15:26:19.915Z,5.72
2023-04-27T15:28:46.611Z,5.70
2023-04-27T15:31:13.258Z,5.75
2023-04-27T15:33:39.832Z,6.03
2023-04-27T15:36:06.661Z,6.22
2023-04-27T15:38:32.999Z,5.35
2023-04-27T15:40:59.364Z,5.60
2023-04-27T15:43:25.762Z,5.82
2023-04-27T15:45:52.136Z,5.97
2023-04-27T15:48:18.474Z,5.80
2023-04-27T15:50:46.503Z,6.40
2023-04-27T15:53:12.966Z,6.20
2023-04-27T15:55:39.564Z,6.55
2023-04-27T15:58:06.102Z,5.88
2023-04-27T16:00:33.649Z,5.82
2023-04-27T16:03:00.451Z,5.72
2023-04-27T16:05:27.298Z,6.20
2023-04-27T16:07:53.620Z,5.60
2023-04-27T16:10:20.364Z,5.57
2023-04-27T16:12:46.977Z,5.70
2023-04-27T16:15:13.437Z,5.57
2023-04-27T16:17:40.111Z,5.88
2023-04-27T16:20:07.269Z,5.55
2023-04-27T16:22:34.620Z,6.05
2023-04-27T16:25:01.547Z,5.50
2023-04-27T16:27:28.171Z,5.45
2023-04-27T16:29:55.278Z,5.40
2023-04-27T16:32:22.042Z,6.03
2023-04-27T16:34:48.801Z,5.50
2023-04-27T16:37:15.367Z,5.40
2023-04-27T16:39:41.972Z,4.95
2023-04-27T16:42:08.316Z,5.10
2023-04-27T16:44:34.913Z,4.63
2023-04-27T16:47:01.378Z,4.85
2023-04-27T16:49:27.947Z,5.40
2023-04-27T16:51:56.101Z,4.90
2023-04-27T16:54:22.705Z,5.15
2023-04-27T16:56:50.146Z,5.28
2023-04-27T16:59:17.115Z,5.63
2023-04-27T17:01:43.711Z,5.60
2023-04-27T17:04:10.757Z,5.28
2023-04-27T17:06:37.430Z,5.38
2023-04-27T17:09:04.873Z,5.40
2023-04-27T17:11:31.668Z,5.50
2023-04-27T17:13:58.144Z,5.32
2023-04-27T17:16:26.964Z,5.43
2023-04-27T17:18:54.374Z,5.53
2023-04-27T17:21:22.893Z,5.75
2023-04-27T17:26:20.001Z,5.15
2023-04-27T17:28:48.737Z,5.55
2023-04-27T17:31:18.290Z,5.20
2023-04-27T17:33:46.376Z,5.82
2023-04-27T17:36:12.981Z,5.20
2023-04-27T17:38:39.568Z,4.97
2023-04-27T17:41:06.079Z,5.55
2023-04-27T17:43:32.528Z,5.30
2023-04-27T17:45:59.176Z,5.65
2023-04-27T17:48:25.861Z,5.05
2023-04-27T17:50:53.552Z,5.35
2023-04-27T17:53:20.158Z,5.40
2023-04-27T17:55:47.657Z,5.50
2023-04-27T17:58:15.424Z,5.32
2023-04-27T18:00:43.166Z,5.57
2023-04-27T18:03:11.457Z,5.77
2023-04-27T18:05:38.096Z,5.72
2023-04-27T18:08:04.764Z,5.55
2023-04-27T18:10:31.505Z,6.18
2023-04-27T18:12:58.083Z,5.97
2023-04-27T18:15:24.512Z,6.13
2023-04-27T18:17:51.020Z,6.40
2023-04-27T18:20:17.649Z,6.43
2023-04-27T18:22:44.344Z,6.50
2023-04-27T18:25:11.085Z,6.47
2023-04-27T18:27:37.905Z,6.18
2023-04-27T18:30:07.904Z,6.45
2023-04-27T18:32:35.061Z,6.43
2023-04-27T18:35:02.307Z,6.43
2023-04-27T18:37:28.855Z,8.88
2023-04-27T18:39:55.604Z,7.43
2023-04-27T18:42:23.348Z,7.38
2023-04-27T18:44:54.559Z,7.03
2023-04-27T18:47:21.727Z,6.68
2023-04-27T18:49:48.530Z,7.05
2023-04-27T18:52:14.898Z,7.32
2023-04-27T18:54:42.064Z,7.13
2023-04-27T18:57:08.761Z,6.35
2023-04-27T18:59:37.627Z,6.88
2023-04-27T19:02:04.270Z,6.57
2023-04-27T19:04:31.270Z,5.93
2023-04-27T19:06:57.724Z,6.10
2023-04-27T19:09:24.327Z,6.00
2023-04-27T19:11:59.995Z,5.53
2023-04-27T19:14:30.091Z,6.15
2023-04-27T19:16:56.800Z,6.05
2023-04-27T19:19:23.677Z,6.05
2023-04-27T19:21:50.097Z,5.63
2023-04-27T19:24:16.726Z,5.18
2023-04-27T19:26:44.354Z,5.75
2023-04-27T19:29:10.779Z,5.93
2023-04-27T19:31:37.215Z,5.82
2023-04-27T19:34:04.462Z,5.75
2023-04-27T19:36:31.851Z,5.85
2023-04-27T19:38:58.436Z,5.45
2023-04-27T19:41:25.592Z,6.35
2023-04-27T19:43:52.015Z,6.13
2023-04-27T19:46:18.442Z,5.68
2023-04-27T19:48:44.926Z,6.13
2023-04-27T19:51:11.639Z,6.13
2023-04-27T19:53:38.364Z,5.75
2023-04-27T19:56:05.072Z,6.03
2023-04-27T19:58:31.720Z,5.95
2023-04-27T20:00:58.079Z,5.80
2023-04-27T20:03:24.663Z,6.38
2023-04-27T20:05:51.586Z,6.70
2023-04-27T20:08:18.114Z,6.72
2023-04-27T20:10:44.698Z,6.65
2023-04-27T20:13:11.211Z,6.07
2023-04-27T20:15:37.892Z,6.90
2023-04-27T20:18:04.487Z,6.82
2023-04-27T20:20:30.822Z,6.90
2023-04-27T20:22:57.396Z,7.57
2023-04-27T20:25:25.819Z,6.30
2023-04-27T20:27:54.557Z,6.60
2023-04-27T20:30:21.084Z,6.50
2023-04-27T20:32:47.652Z,6.95
2023-04-27T20:35:14.210Z,7.95
2023-04-27T20:37:41.911Z,6.85
2023-04-27T20:40:12.635Z,7.32
2023-04-27T20:42:40.598Z,6.40
2023-04-27T20:45:10.132Z,6.13
2023-04-27T20:47:36.881Z,6.80
2023-04-27T20:50:04.080Z,6.32
2023-04-27T20:52:33.838Z,6.10
2023-04-27T20:55:00.965Z,6.40
2023-04-27T20:57:27.276Z,6.80
2023-04-27T20:59:53.620Z,6.47
2023-04-27T21:02:20.304Z,6.22
2023-04-27T21:04:47.048Z,6.20
2023-04-27T21:07:13.787Z,5.60
2023-04-27T21:09:40.346Z,6.25
2023-04-27T21:12:06.858Z,6.53
2023-04-27T21:14:33.737Z,6.10
2023-04-27T21:17:00.829Z,6.57
2023-04-27T21:19:27.429Z,7.05
2023-04-27T21:21:54.085Z,6.47
2023-04-27T21:24:20.477Z,6.85
2023-04-27T21:26:46.922Z,6.72
2023-04-27T21:29:13.531Z,6.60
2023-04-27T21:31:40.084Z,6.93
2023-04-27T21:34:06.521Z,6.68
2023-04-27T21:36:33.102Z,7.65
2023-04-27T21:38:59.727Z,7.10
2023-04-27T21:41:26.418Z,6.97
2023-04-27T21:43:52.824Z,7.00
2023-04-27T21:46:19.233Z,7.15
2023-04-27T21:48:45.932Z,7.18
2023-04-27T21:51:12.266Z,7.35
2023-04-27T21:53:38.631Z,6.82
2023-04-27T21:56:05.867Z,7.45
2023-04-27T21:58:32.180Z,7.43
2023-04-27T22:00:58.532Z,7.53
2023-04-27T22:03:25.092Z,7.32
2023-04-27T22:05:52.755Z,7.03
2023-04-27T22:08:19.396Z,7.13
2023-04-27T22:10:46.968Z,7.20
2023-04-27T22:13:18.259Z,7.43
2023-04-27T22:15:45.714Z,8.23
2023-04-27T22:18:12.304Z,6.88
2023-04-27T22:20:38.904Z,7.03
2023-04-27T22:23:05.402Z,7.25
2023-04-27T22:25:33.631Z,7.05
2023-04-27T22:28:00.021Z,6.82
2023-04-27T22:30:31.146Z,6.97
2023-04-27T22:32:58.071Z,6.97
2023-04-27T22:35:27.582Z,7.13
2023-04-27T22:37:55.760Z,7.07
2023-04-27T22:40:22.953Z,7.33
2023-04-27T22:42:49.537Z,6.78
2023-04-27T22:45:16.476Z,7.13
2023-04-27T22:47:44.518Z,7.43
2023-04-27T22:50:12.185Z,7.20
2023-04-27T22:52:42.093Z,6.25
2023-04-27T22:55:09.367Z,7.13
2023-04-27T22:57:36.005Z,6.45
2023-04-27T23:00:05.169Z,6.90
2023-04-27T23:02:32.353Z,6.55
2023-04-27T23:04:59.064Z,6.85
2023-04-27T23:07:25.510Z,6.10
2023-04-27T23:09:52.841Z,6.90
2023-04-27T23:12:20.598Z,7.55
2023-04-27T23:14:47.193Z,6.95
2023-04-27T23:17:15.253Z,6.90
2023-04-27T23:19:41.925Z,7.65
2023-04-27T23:22:08.393Z,7.10
2023-04-27T23:24:34.796Z,6.43
2023-04-27T23:27:01.469Z,6.63
2023-04-27T23:29:27.910Z,6.97
2023-04-27T23:31:54.340Z,6.80
2023-04-27T23:34:23.372Z,6.45
2023-04-27T23:36:49.931Z,7.15
2023-04-27T23:39:16.228Z,7.15
2023-04-27T23:41:42.807Z,6.68
2023-04-27T23:44:09.157Z,6.70
2023-04-27T23:46:35.624Z,6.43
2023-04-27T23:49:01.983Z,7.28
2023-04-27T23:51:28.331Z,6.05
2023-04-27T23:53:54.924Z,6.35
2023-04-27T23:56:22.984Z,7.00
2023-04-27T23:58:49.354Z,6.80
